Time;durP1;ratioP1;P1;durP2;ratioP2;P2;SDS_P1;SDS_P2;PMS_P1;PMS_P2;Temp;Humidity;BMP_temperature;BMP_pressure;BME280_temperature;BME280_humidity;BME280_pressure;Samples;Min_cycle;Max_cycle;Signal;HPM_P1;HPM_P2
2023/05/05 00:02:20;;;;;;;7.43;2.50;;;16.70;99.90;;;;;;5096445;28;20192;-74
2023/05/05 00:04:51;;;;;;;8.77;2.58;;;16.80;99.90;;;;;;5096428;28;20548;-73
2023/05/05 00:07:22;;;;;;;8.57;2.92;;;17.00;99.90;;;;;;5096232;28;20215;-73
2023/05/05 00:09:53;;;;;;;6.78;2.70;;;17.00;99.90;;;;;;5096229;28;20192;-73
2023/05/05 00:12:26;;;;;;;6.65;2.67;;;17.10;99.90;;;;;;5095937;28;20219;-74
2023/05/05 00:14:57;;;;;;;4.63;2.55;;;17.20;99.90;;;;;;5082738;28;20207;-74
2023/05/05 00:17:28;;;;;;;7.18;3.00;;;17.30;99.90;;;;;;5075706;28;20221;-74
2023/05/05 00:20:02;;;;;;;6.88;2.78;;;17.40;99.90;;;;;;5075977;28;20629;-73
2023/05/05 00:22:33;;;;;;;6.63;2.70;;;17.50;99.90;;;;;;5076123;28;20189;-74
2023/05/05 00:25:04;;;;;;;5.30;2.60;;;17.60;99.90;;;;;;5075937;28;20193;-73
2023/05/05 00:27:37;;;;;;;4.40;2.50;;;17.70;99.90;;;;;;5075392;28;20247;-73
2023/05/05 00:30:09;;;;;;;7.03;2.35;;;17.70;99.90;;;;;;5075605;28;20192;-74
2023/05/05 00:32:40;;;;;;;5.85;2.45;;;17.90;99.90;;;;;;5075453;28;20188;-74
2023/05/05 00:35:12;;;;;;;7.35;2.47;;;18.00;99.90;;;;;;5092810;28;20196;-73
2023/05/05 00:37:43;;;;;;;4.93;2.00;;;18.10;99.90;;;;;;5095605;28;20208;-74
2023/05/05 00:40:14;;;;;;;4.75;2.10;;;18.20;99.90;;;;;;5095450;28;20192;-74
2023/05/05 00:42:51;;;;;;;6.15;2.05;;;18.30;99.90;;;;;;5095687;28;20598;-73
2023/05/05 00:45:23;;;;;;;5.70;1.90;;;18.40;99.90;;;;;;5094432;28;20654;-74
2023/05/05 00:47:56;;;;;;;5.38;1.75;;;18.60;99.90;;;;;;5095656;28;20196;-73
2023/05/05 00:50:28;;;;;;;4.78;1.63;;;18.70;99.90;;;;;;5092834;28;20203;-73
2023/05/05 00:53:02;;;;;;;2.90;1.52;;;18.80;99.90;;;;;;5093972;28;20640;-73
2023/05/05 00:55:34;;;;;;;4.90;1.60;;;18.90;99.90;;;;;;5095210;28;20188;-74
2023/05/05 00:58:08;;;;;;;3.80;1.50;;;18.90;99.90;;;;;;5095514;28;20219;-73
2023/05/05 01:00:39;;;;;;;3.88;1.40;;;19.00;99.90;;;;;;5095154;28;20192;-73
2023/05/05 01:03:11;;;;;;;4.63;1.27;;;19.10;99.90;;;;;;5095229;28;20236;-74
2023/05/05 01:05:53;;;;;;;4.10;1.40;;;19.20;99.90;;;;;;5095248;28;20211;-72
2023/05/05 01:08:37;;;;;;;5.10;1.30;;;19.30;99.90;;;;;;5092982;28;20621;-72
2023/05/05 01:11:19;;;;;;;4.93;1.50;;;19.50;99.90;;;;;;5094963;28;20223;-74
2023/05/05 01:14:03;;;;;;;2.83;1.20;;;19.60;99.90;;;;;;5095087;28;20548;-73
2023/05/05 01:16:37;;;;;;;3.85;1.10;;;19.70;99.90;;;;;;5094855;28;20582;-74
2023/05/05 01:19:26;;;;;;;2.95;0.90;;;19.80;99.90;;;;;;5094841;28;20219;-73
2023/05/05 01:22:01;;;;;;;4.75;0.95;;;19.90;99.90;;;;;;5093949;28;20679;-74
2023/05/05 01:24:51;;;;;;;3.60;0.93;;;20.00;99.90;;;;;;5088619;28;20206;-74
2023/05/05 01:27:47;;;;;;;4.40;0.93;;;20.00;99.90;;;;;;5078799;28;20197;-74
2023/05/05 01:30:40;;;;;;;4.40;0.88;;;20.10;99.90;;;;;;5076895;28;20188;-73
2023/05/05 01:33:16;;;;;;;3.25;0.70;;;20.10;99.90;;;;;;5085559;28;20713;-74
2023/05/05 01:35:51;;;;;;;2.17;0.70;;;20.20;99.90;;;;;;5095573;28;20222;-73
2023/05/05 01:38:29;;;;;;;1.98;0.70;;;20.30;99.90;;;;;;5093871;28;20215;-75
2023/05/05 01:41:04;;;;;;;3.05;0.80;;;20.40;99.90;;;;;;5086064;28;20249;-73
2023/05/05 01:43:37;;;;;;;2.78;0.70;;;20.50;99.90;;;;;;5079400;28;20212;-73
2023/05/05 01:46:10;;;;;;;3.95;0.77;;;20.50;99.90;;;;;;5083492;28;20192;-74
2023/05/05 01:48:44;;;;;;;1.98;0.60;;;20.50;99.90;;;;;;5094336;28;20196;-73
2023/05/05 01:51:17;;;;;;;3.83;0.75;;;20.60;99.90;;;;;;5085570;28;20192;-74
2023/05/05 01:53:48;;;;;;;2.33;0.60;;;20.70;99.90;;;;;;5091860;28;20197;-74
2023/05/05 01:56:20;;;;;;;1.95;0.60;;;20.80;99.90;;;;;;5073932;28;20189;-73
2023/05/05 01:58:52;;;;;;;2.72;0.80;;;20.90;99.90;;;;;;5073535;28;20220;-73
2023/05/05 02:01:25;;;;;;;2.55;0.63;;;21.00;99.90;;;;;;5073814;28;20201;-73
2023/05/05 02:04:00;;;;;;;2.33;0.70;;;21.00;99.90;;;;;;5086390;28;20245;-73
2023/05/05 02:06:33;;;;;;;3.47;0.70;;;21.00;99.90;;;;;;5093959;28;20190;-73
2023/05/05 02:09:06;;;;;;;1.83;0.60;;;21.00;99.90;;;;;;5094229;28;20213;-74
2023/05/05 02:11:38;;;;;;;1.95;0.60;;;21.00;99.90;;;;;;5091217;28;20306;-73
2023/05/05 02:14:10;;;;;;;2.17;0.70;;;21.10;99.90;;;;;;5090333;28;20199;-73
2023/05/05 02:16:43;;;;;;;2.95;0.70;;;21.20;99.90;;;;;;5073573;28;20193;-73
2023/05/05 02:19:16;;;;;;;3.75;0.80;;;21.20;99.90;;;;;;5077928;28;20215;-73
2023/05/05 02:21:47;;;;;;;1.60;0.60;;;21.00;99.90;;;;;;5091274;28;20196;-72
2023/05/05 02:24:19;;;;;;;1.80;0.70;;;21.00;99.90;;;;;;5073845;28;20204;-73
2023/05/05 02:26:53;;;;;;;1.85;0.50;;;20.80;99.90;;;;;;5081128;28;20196;-74
2023/05/05 02:29:37;;;;;;;1.33;0.60;;;20.70;99.90;;;;;;5093487;28;20195;-73
2023/05/05 02:32:11;;;;;;;1.50;0.57;;;20.60;99.90;;;;;;5082887;28;20196;-73
2023/05/05 02:34:47;;;;;;;2.47;0.65;;;20.70;99.90;;;;;;5095658;28;20565;-74
2023/05/05 02:37:24;;;;;;;1.25;0.57;;;21.00;99.90;;;;;;5084245;28;20203;-72
2023/05/05 02:40:00;;;;;;;2.25;0.65;;;21.10;99.90;;;;;;5084597;28;20211;-73
2023/05/05 02:42:35;;;;;;;2.20;0.60;;;21.10;99.90;;;;;;5090905;28;20204;-74
2023/05/05 02:45:12;;;;;;;1.92;0.40;;;21.00;99.90;;;;;;5089378;28;20200;-72
2023/05/05 02:47:43;;;;;;;1.15;0.47;;;20.80;99.90;;;;;;5091383;28;20188;-73
2023/05/05 02:50:17;;;;;;;1.38;0.40;;;20.90;99.90;;;;;;5093390;28;20196;-72
2023/05/05 02:52:48;;;;;;;1.50;0.50;;;21.00;99.90;;;;;;5088641;28;20196;-73
2023/05/05 02:55:20;;;;;;;2.13;0.60;;;21.10;99.90;;;;;;5080243;28;20205;-73
2023/05/05 02:57:58;;;;;;;1.23;0.50;;;21.10;99.90;;;;;;5087614;28;20219;-73
2023/05/05 03:00:39;;;;;;;2.33;0.50;;;21.10;99.90;;;;;;5081193;28;20264;-73
2023/05/05 03:03:16;;;;;;;1.10;0.40;;;21.00;99.90;;;;;;5085984;28;20251;-73
2023/05/05 03:05:58;;;;;;;2.08;0.75;;;21.00;99.90;;;;;;5078702;28;20206;-74
2023/05/05 03:08:36;;;;;;;1.58;0.50;;;21.10;99.90;;;;;;5082859;28;20191;-74
2023/05/05 03:11:11;;;;;;;2.80;0.50;;;21.30;99.90;;;;;;5102357;28;20224;-74
2023/05/05 03:13:45;;;;;;;1.35;0.40;;;21.40;99.90;;;;;;5093283;28;20195;-73
2023/05/05 03:16:18;;;;;;;1.30;0.50;;;21.60;99.90;;;;;;5094541;28;20645;-73
2023/05/05 03:18:51;;;;;;;1.25;0.45;;;21.60;99.90;;;;;;5093094;28;20216;-73
2023/05/05 03:21:25;;;;;;;1.38;0.38;;;21.70;99.90;;;;;;5092936;28;20199;-73
2023/05/05 03:23:56;;;;;;;1.08;0.60;;;21.80;99.90;;;;;;5093515;28;20275;-72
2023/05/05 03:26:27;;;;;;;3.63;0.57;;;21.90;99.90;;;;;;5093096;28;20192;-73
2023/05/05 03:28:58;;;;;;;0.90;0.38;;;21.90;99.90;;;;;;5092280;28;20189;-74
2023/05/05 03:31:29;;;;;;;3.03;0.40;;;21.90;99.90;;;;;;5093088;28;20195;-73
2023/05/05 03:34:01;;;;;;;1.75;0.50;;;21.90;99.90;;;;;;5090916;28;20185;-72
2023/05/05 03:36:34;;;;;;;2.25;0.47;;;21.70;99.90;;;;;;5073793;28;20201;-73
2023/05/05 03:39:05;;;;;;;1.55;0.50;;;21.50;99.90;;;;;;5072716;28;20228;-73
2023/05/05 03:41:36;;;;;;;1.20;0.40;;;21.20;99.90;;;;;;5072862;28;20193;-72
2023/05/05 03:44:07;;;;;;;2.55;0.80;;;20.90;99.90;;;;;;5081697;28;20197;-73
2023/05/05 03:46:38;;;;;;;1.20;0.50;;;20.90;99.90;;;;;;5112518;28;20199;-73
2023/05/05 03:49:09;;;;;;;1.27;0.32;;;20.90;99.90;;;;;;5113117;28;20191;-73
2023/05/05 03:51:42;;;;;;;1.15;0.40;;;21.00;99.90;;;;;;5083304;28;20194;-74
2023/05/05 03:54:13;;;;;;;1.80;0.40;;;21.00;99.90;;;;;;5072660;28;20259;-74
2023/05/05 03:56:44;;;;;;;1.48;0.40;;;21.10;99.90;;;;;;5072861;28;20208;-74
2023/05/05 03:59:16;;;;;;;1.15;0.40;;;21.10;99.90;;;;;;5077162;28;20216;-74
2023/05/05 04:01:48;;;;;;;1.33;0.50;;;21.10;99.90;;;;;;5116853;28;20188;-73
2023/05/05 04:04:20;;;;;;;2.58;0.65;;;21.20;99.90;;;;;;5109407;28;20257;-74
2023/05/05 04:06:53;;;;;;;2.50;0.40;;;21.30;99.90;;;;;;5096475;28;20220;-73
2023/05/05 04:09:24;;;;;;;1.63;0.55;;;21.50;99.90;;;;;;5098095;28;20196;-72
2023/05/05 04:11:55;;;;;;;1.05;0.40;;;21.50;99.90;;;;;;5116748;28;20215;-72
2023/05/05 04:14:26;;;;;;;3.25;0.63;;;21.40;99.90;;;;;;5116584;28;20188;-73
2023/05/05 04:16:57;;;;;;;1.30;0.40;;;21.20;99.90;;;;;;5116619;28;20192;-72
2023/05/05 04:19:28;;;;;;;2.40;0.50;;;21.10;99.90;;;;;;5114464;28;20587;-72
2023/05/05 04:22:01;;;;;;;2.92;0.40;;;21.10;99.90;;;;;;5116545;28;20191;-72
2023/05/05 04:24:32;;;;;;;1.85;0.50;;;21.20;99.90;;;;;;5116426;28;20195;-74
2023/05/05 04:27:03;;;;;;;1.40;0.50;;;21.20;99.90;;;;;;5116318;28;20196;-72
2023/05/05 04:29:34;;;;;;;1.60;0.50;;;21.30;99.90;;;;;;5116506;28;20188;-73
2023/05/05 04:32:06;;;;;;;2.42;0.60;;;21.40;99.90;;;;;;5114347;28;20215;-72
2023/05/05 04:34:37;;;;;;;0.85;0.40;;;21.50;99.90;;;;;;5116565;28;20192;-73
2023/05/05 04:37:10;;;;;;;2.08;0.57;;;21.50;99.90;;;;;;5107254;28;20188;-72
2023/05/05 04:39:41;;;;;;;2.15;0.70;;;21.50;99.90;;;;;;5107767;28;20212;-71
2023/05/05 04:42:12;;;;;;;2.05;0.35;;;21.50;99.90;;;;;;5096757;28;20207;-71
2023/05/05 04:44:43;;;;;;;0.82;0.35;;;21.40;99.90;;;;;;5095704;28;20197;-72
2023/05/05 04:47:14;;;;;;;2.20;0.60;;;21.50;99.90;;;;;;5095481;28;20211;-71
2023/05/05 04:49:45;;;;;;;1.85;0.52;;;21.50;99.90;;;;;;5102494;28;20187;-73
2023/05/05 04:52:18;;;;;;;2.15;0.50;;;21.50;99.90;;;;;;5115893;28;20233;-72
2023/05/05 04:54:49;;;;;;;0.65;0.40;;;21.40;99.90;;;;;;5115931;28;20202;-73
2023/05/05 04:57:21;;;;;;;1.70;0.50;;;21.30;99.90;;;;;;5109724;27;20183;-72
2023/05/05 04:59:52;;;;;;;2.30;0.47;;;21.20;99.90;;;;;;5095530;28;20216;-74
2023/05/05 05:02:23;;;;;;;0.93;0.40;;;21.10;99.90;;;;;;5095136;28;20188;-74
2023/05/05 05:04:54;;;;;;;1.38;0.60;;;21.20;99.90;;;;;;5091217;28;20193;-73
2023/05/05 05:07:27;;;;;;;3.15;0.47;;;21.10;99.90;;;;;;5086133;28;20185;-73
2023/05/05 05:09:58;;;;;;;3.22;0.60;;;21.20;99.90;;;;;;5086301;28;20207;-74
2023/05/05 05:12:29;;;;;;;2.22;0.40;;;21.30;99.90;;;;;;5095391;28;20203;-73
2023/05/05 05:15:00;;;;;;;1.10;0.32;;;21.30;99.90;;;;;;5094990;28;20188;-73
2023/05/05 05:17:31;;;;;;;2.50;0.50;;;21.30;99.90;;;;;;5094651;28;20196;-73
2023/05/05 05:20:04;;;;;;;1.63;0.50;;;21.20;99.90;;;;;;5095202;28;20580;-74
2023/05/05 05:22:37;;;;;;;3.38;0.90;;;21.20;99.90;;;;;;5095084;28;20211;-74
2023/05/05 05:25:09;;;;;;;2.20;0.82;;;21.20;99.90;;;;;;5094929;28;20265;-76
2023/05/05 05:27:40;;;;;;;2.22;1.00;;;21.10;99.90;;;;;;5094617;28;20192;-74
2023/05/05 05:30:12;;;;;;;3.35;1.15;;;21.00;99.90;;;;;;5095399;28;20623;-75
2023/05/05 05:32:43;;;;;;;4.78;1.00;;;20.90;99.90;;;;;;5095012;28;20203;-75
2023/05/05 05:35:14;;;;;;;4.22;0.90;;;20.80;99.90;;;;;;5094719;28;20246;-74
2023/05/05 05:37:50;;;;;;;2.65;1.10;;;20.70;99.90;;;;;;5094597;28;20199;-74
2023/05/05 05:40:21;;;;;;;4.13;0.80;;;20.70;99.90;;;;;;5094432;28;20629;-74
2023/05/05 05:42:52;;;;;;;3.15;0.93;;;20.70;99.90;;;;;;5093723;28;20191;-73
2023/05/05 05:45:23;;;;;;;3.08;0.63;;;20.60;99.90;;;;;;5094202;28;20548;-74
2023/05/05 05:47:55;;;;;;;3.30;0.77;;;20.60;99.90;;;;;;5094806;28;20200;-73
2023/05/05 05:50:27;;;;;;;2.95;0.60;;;20.60;99.90;;;;;;5081011;28;20185;-75
2023/05/05 05:53:00;;;;;;;2.55;0.60;;;20.40;99.90;;;;;;5094388;28;20230;-75
2023/05/05 05:55:32;;;;;;;5.20;0.80;;;20.30;99.90;;;;;;5094226;28;20668;-74
2023/05/05 05:58:03;;;;;;;5.28;0.85;;;20.20;99.90;;;;;;5093523;28;20195;-72
2023/05/05 06:00:34;;;;;;;2.33;0.60;;;20.10;99.90;;;;;;5091827;28;20216;-74
2023/05/05 06:03:06;;;;;;;2.08;0.80;;;20.20;99.90;;;;;;5096072;28;20228;-73
2023/05/05 06:05:37;;;;;;;4.30;0.70;;;20.20;99.90;;;;;;5101817;28;20208;-73
2023/05/05 06:08:10;;;;;;;2.78;1.02;;;20.20;99.90;;;;;;5114184;28;20191;-73
2023/05/05 06:10:42;;;;;;;2.78;0.80;;;20.20;99.90;;;;;;5103246;28;20212;-74
2023/05/05 06:13:13;;;;;;;4.93;0.70;;;20.20;99.90;;;;;;5091579;28;20193;-73
2023/05/05 06:15:45;;;;;;;2.42;0.70;;;20.10;99.90;;;;;;5088280;28;20199;-73
2023/05/05 06:18:16;;;;;;;4.75;0.82;;;20.10;99.90;;;;;;5073715;28;20188;-74
2023/05/05 06:20:47;;;;;;;3.47;0.80;;;20.00;99.90;;;;;;5074282;28;20797;-74
2023/05/05 06:23:20;;;;;;;3.88;0.90;;;19.90;99.90;;;;;;5073405;28;20649;-73
2023/05/05 06:25:53;;;;;;;3.75;0.82;;;19.80;99.90;;;;;;5073609;28;20574;-73
2023/05/05 06:28:24;;;;;;;3.25;1.00;;;19.80;99.90;;;;;;5073261;28;20280;-74
2023/05/05 06:30:55;;;;;;;5.20;0.90;;;19.80;99.90;;;;;;5073644;28;20208;-73
2023/05/05 06:33:26;;;;;;;3.40;0.85;;;19.70;99.90;;;;;;5073411;28;20524;-73
2023/05/05 06:35:57;;;;;;;2.42;0.70;;;19.70;99.90;;;;;;5073410;28;20196;-75
2023/05/05 06:38:30;;;;;;;4.28;1.00;;;19.60;99.90;;;;;;5107050;28;20187;-73
2023/05/05 06:41:01;;;;;;;2.70;0.90;;;19.60;99.90;;;;;;5113772;28;20576;-75
2023/05/05 06:43:32;;;;;;;3.63;0.80;;;19.50;99.90;;;;;;5113741;28;20214;-73
2023/05/05 06:46:03;;;;;;;4.13;0.85;;;19.50;99.90;;;;;;5114185;28;20195;-74
2023/05/05 06:48:35;;;;;;;2.65;0.80;;;19.40;99.90;;;;;;5100175;28;20181;-73
2023/05/05 06:51:06;;;;;;;2.47;0.82;;;19.40;99.90;;;;;;5093485;28;20191;-73
2023/05/05 06:53:39;;;;;;;1.73;0.80;;;19.40;99.90;;;;;;5093646;28;20184;-74
2023/05/05 06:56:10;;;;;;;1.75;0.60;;;19.30;99.90;;;;;;5093638;28;20193;-74
2023/05/05 06:58:41;;;;;;;2.92;0.90;;;19.20;99.90;;;;;;5093509;28;20199;-74
2023/05/05 07:01:12;;;;;;;4.13;0.93;;;19.10;99.90;;;;;;5093270;28;20220;-74
2023/05/05 07:03:43;;;;;;;3.08;1.15;;;19.10;99.90;;;;;;5102719;28;20231;-73
2023/05/05 07:06:15;;;;;;;3.80;1.52;;;19.00;99.90;;;;;;5113296;28;20184;-74
2023/05/05 07:08:48;;;;;;;7.03;1.58;;;19.00;99.90;;;;;;5073086;28;20200;-73
2023/05/05 07:11:20;;;;;;;4.22;1.20;;;18.90;99.90;;;;;;5090545;28;20222;-74
2023/05/05 07:13:51;;;;;;;2.15;0.80;;;18.90;99.90;;;;;;5107199;28;20195;-74
2023/05/05 07:16:22;;;;;;;4.68;0.95;;;18.90;99.90;;;;;;5113559;28;20247;-73
2023/05/05 07:18:53;;;;;;;5.50;0.80;;;18.80;99.90;;;;;;5113512;28;20196;-74
2023/05/05 07:21:25;;;;;;;6.30;2.00;;;18.80;99.90;;;;;;5113737;28;20215;-73
2023/05/05 07:23:58;;;;;;;3.75;1.33;;;18.70;99.90;;;;;;5113552;28;20192;-74
2023/05/05 07:26:30;;;;;;;3.85;0.90;;;18.70;99.90;;;;;;5094044;28;20192;-73
2023/05/05 07:29:01;;;;;;;2.08;0.80;;;18.60;99.90;;;;;;5093111;28;20196;-73
2023/05/05 07:31:32;;;;;;;3.45;0.90;;;18.60;99.90;;;;;;5110071;28;20191;-73
2023/05/05 07:34:03;;;;;;;4.65;1.10;;;18.60;99.90;;;;;;5114728;28;20571;-74
2023/05/05 07:36:34;;;;;;;4.75;1.00;;;18.50;99.90;;;;;;5117318;28;20191;-74
2023/05/05 07:39:07;;;;;;;3.20;1.00;;;18.50;99.90;;;;;;5117243;28;20199;-74
2023/05/05 07:41:38;;;;;;;6.15;1.00;;;18.40;99.90;;;;;;5108014;28;20218;-73
2023/05/05 07:44:10;;;;;;;4.30;1.10;;;18.40;99.90;;;;;;5096224;28;20619;-75
2023/05/05 07:46:41;;;;;;;5.18;0.90;;;18.40;99.90;;;;;;5087862;28;20284;-74
2023/05/05 07:49:12;;;;;;;3.45;0.90;;;18.30;99.90;;;;;;5087757;28;20200;-75
2023/05/05 07:51:43;;;;;;;3.70;1.08;;;18.30;99.90;;;;;;5105880;28;20207;-75
2023/05/05 07:54:16;;;;;;;3.03;1.00;;;18.30;99.90;;;;;;5078184;28;20193;-74
2023/05/05 07:56:48;;;;;;;2.42;0.80;;;18.20;99.90;;;;;;5105299;28;20198;-74
2023/05/05 07:59:19;;;;;;;5.75;1.20;;;18.10;99.90;;;;;;5083396;28;20560;-74
2023/05/05 08:01:50;;;;;;;4.88;1.10;;;18.10;99.90;;;;;;5091172;28;20294;-74
2023/05/05 08:04:21;;;;;;;1.92;0.85;;;18.10;99.90;;;;;;5091095;28;20667;-74
2023/05/05 08:06:52;;;;;;;2.50;1.05;;;18.10;99.90;;;;;;5097871;28;20196;-75
2023/05/05 08:09:25;;;;;;;4.25;1.00;;;18.00;99.90;;;;;;5096126;28;20200;-75
2023/05/05 08:11:56;;;;;;;4.18;1.10;;;18.00;99.90;;;;;;5097690;28;20215;-74
2023/05/05 08:14:27;;;;;;;3.13;0.98;;;18.00;99.90;;;;;;5093209;28;20203;-74
2023/05/05 08:17:00;;;;;;;4.10;1.08;;;18.00;99.90;;;;;;5088909;28;20660;-75
2023/05/05 08:19:31;;;;;;;5.90;1.48;;;18.00;99.90;;;;;;5088644;28;20641;-75
2023/05/05 08:22:02;;;;;;;3.70;1.00;;;18.00;99.90;;;;;;5092392;28;20844;-75
2023/05/05 08:24:35;;;;;;;3.75;1.13;;;18.00;99.90;;;;;;5088466;28;20196;-74
2023/05/05 08:27:06;;;;;;;3.97;1.25;;;18.00;99.90;;;;;;5091019;28;20196;-74
2023/05/05 08:29:37;;;;;;;4.30;1.20;;;17.90;99.90;;;;;;5090151;28;20196;-74
2023/05/05 08:32:09;;;;;;;6.00;1.42;;;17.90;99.90;;;;;;5088232;28;20196;-74
2023/05/05 08:34:40;;;;;;;2.70;1.20;;;17.90;99.90;;;;;;5094508;28;20193;-74
2023/05/05 08:37:11;;;;;;;5.00;1.23;;;17.90;99.90;;;;;;5082166;28;20205;-74
2023/05/05 08:39:44;;;;;;;3.33;1.10;;;17.90;99.90;;;;;;5092136;28;20196;-73
2023/05/05 08:42:15;;;;;;;6.57;1.38;;;17.90;99.90;;;;;;5086877;28;20917;-74
2023/05/05 08:44:46;;;;;;;5.20;1.30;;;17.90;99.90;;;;;;5078072;28;20606;-74
2023/05/05 08:47:18;;;;;;;6.38;1.42;;;17.90;99.90;;;;;;5093832;28;20200;-73
2023/05/05 08:49:51;;;;;;;7.80;1.40;;;17.80;99.90;;;;;;5096478;28;20201;-74
2023/05/05 08:52:25;;;;;;;5.18;1.50;;;17.80;99.90;;;;;;5086388;28;20197;-75
2023/05/05 08:55:03;;;;;;;4.78;1.20;;;17.80;99.90;;;;;;5088955;28;20196;-73
2023/05/05 08:57:42;;;;;;;3.10;1.10;;;17.80;99.90;;;;;;5095607;28;20192;-73
2023/05/05 09:00:14;;;;;;;9.38;1.27;;;17.80;99.90;;;;;;5099802;28;20220;-74
2023/05/05 09:02:47;;;;;;;5.40;1.30;;;17.70;99.90;;;;;;5089717;28;20222;-74
2023/05/05 09:05:18;;;;;;;5.57;1.17;;;17.70;99.90;;;;;;5081938;28;20193;-74
2023/05/05 09:07:51;;;;;;;3.63;1.45;;;17.70;99.90;;;;;;5082095;28;20230;-74
2023/05/05 09:10:24;;;;;;;4.80;1.35;;;17.70;99.90;;;;;;5089963;28;20655;-74
2023/05/05 09:12:57;;;;;;;4.22;1.52;;;17.70;99.90;;;;;;5091975;28;20566;-74
2023/05/05 09:15:28;;;;;;;4.13;1.48;;;17.60;99.90;;;;;;5086926;28;20193;-74
2023/05/05 09:18:00;;;;;;;4.90;1.42;;;17.60;99.90;;;;;;5092316;28;20257;-74
2023/05/05 09:20:37;;;;;;;6.53;1.77;;;17.60;99.90;;;;;;5092069;28;20212;-73
2023/05/05 09:23:13;;;;;;;5.07;1.45;;;17.60;99.90;;;;;;5089764;28;20195;-73
2023/05/05 09:25:47;;;;;;;2.65;1.20;;;17.60;99.90;;;;;;5091917;28;20196;-74
2023/05/05 09:28:19;;;;;;;3.38;1.40;;;17.60;99.90;;;;;;5085833;28;20681;-74
2023/05/05 09:30:50;;;;;;;6.72;1.67;;;17.50;99.90;;;;;;5082541;28;20204;-74
2023/05/05 09:33:32;;;;;;;4.65;1.23;;;17.50;99.90;;;;;;5089204;28;20195;-74
2023/05/05 09:36:03;;;;;;;3.45;1.25;;;17.50;99.90;;;;;;5083341;28;20199;-73
2023/05/05 09:38:34;;;;;;;4.55;1.50;;;17.50;99.90;;;;;;5092093;28;20200;-74
2023/05/05 09:41:07;;;;;;;5.13;1.40;;;17.50;99.90;;;;;;5089677;28;20216;-74
2023/05/05 09:43:53;;;;;;;3.97;1.40;;;17.40;99.90;;;;;;5090922;28;20557;-74
2023/05/05 09:46:24;;;;;;;4.60;1.27;;;17.40;99.90;;;;;;5091471;28;20203;-74
2023/05/05 09:48:55;;;;;;;7.15;1.35;;;17.40;99.90;;;;;;5093515;28;20567;-74
2023/05/05 09:51:32;;;;;;;6.05;1.50;;;17.40;99.90;;;;;;5091623;28;20662;-74
2023/05/05 09:54:03;;;;;;;4.43;1.25;;;17.40;99.90;;;;;;5093049;28;20651;-73
2023/05/05 09:56:43;;;;;;;5.40;1.60;;;17.30;99.90;;;;;;5091143;28;20195;-74
2023/05/05 09:59:14;;;;;;;3.00;1.20;;;17.30;99.90;;;;;;5084532;28;20661;-74
2023/05/05 10:01:45;;;;;;;6.07;1.50;;;17.30;99.90;;;;;;5091505;28;20217;-74
2023/05/05 10:04:30;;;;;;;5.07;1.35;;;17.30;99.90;;;;;;5091669;28;20228;-74
2023/05/05 10:07:02;;;;;;;5.63;1.60;;;17.30;99.90;;;;;;5080585;28;20207;-74
2023/05/05 10:09:33;;;;;;;4.25;1.33;;;17.30;99.90;;;;;;5089152;28;20218;-74
2023/05/05 10:12:09;;;;;;;3.90;1.35;;;17.30;99.90;;;;;;5088683;28;20242;-74
2023/05/05 10:14:40;;;;;;;2.90;1.38;;;17.30;99.90;;;;;;5083004;28;20215;-74
2023/05/05 10:17:13;;;;;;;4.97;1.40;;;17.30;99.90;;;;;;5091081;28;20220;-74
2023/05/05 10:19:45;;;;;;;6.55;1.40;;;17.20;99.90;;;;;;5087455;28;20671;-74
2023/05/05 10:22:17;;;;;;;3.47;1.45;;;17.20;99.90;;;;;;5080640;28;20219;-74
2023/05/05 10:24:52;;;;;;;5.63;1.60;;;17.20;99.90;;;;;;5078825;28;20196;-74
2023/05/05 10:27:28;;;;;;;5.78;1.48;;;17.20;99.90;;;;;;5076670;28;20213;-73
2023/05/05 10:30:05;;;;;;;5.63;1.40;;;17.20;99.90;;;;;;5085476;28;20685;-74
2023/05/05 10:32:42;;;;;;;5.15;1.48;;;17.20;99.90;;;;;;5089708;28;20215;-74
2023/05/05 10:35:17;;;;;;;4.72;1.55;;;17.10;99.90;;;;;;5104952;28;20188;-74
2023/05/05 10:37:49;;;;;;;4.30;1.60;;;17.10;99.90;;;;;;5100383;28;20200;-74
2023/05/05 10:40:24;;;;;;;4.13;1.58;;;17.10;99.90;;;;;;5095662;28;20187;-74
2023/05/05 10:43:01;;;;;;;4.95;1.67;;;17.10;99.90;;;;;;5093702;28;20192;-73
2023/05/05 10:45:32;;;;;;;4.60;1.65;;;17.10;99.90;;;;;;5085627;28;20199;-73
2023/05/05 10:48:05;;;;;;;4.43;1.70;;;17.00;99.90;;;;;;5080674;28;20569;-73
2023/05/05 10:50:40;;;;;;;4.90;2.03;;;17.00;99.90;;;;;;5090575;28;20222;-74
2023/05/05 10:53:17;;;;;;;7.20;2.20;;;17.00;99.90;;;;;;5088845;28;20553;-73
2023/05/05 10:55:55;;;;;;;4.22;1.88;;;16.90;99.90;;;;;;5086043;28;20196;-73
2023/05/05 10:58:38;;;;;;;5.75;1.90;;;16.90;99.90;;;;;;5090432;28;20203;-74
2023/05/05 11:01:10;;;;;;;3.83;1.67;;;16.90;99.90;;;;;;5088645;28;20589;-73
2023/05/05 11:03:41;;;;;;;4.82;1.58;;;16.90;99.90;;;;;;5105431;28;20227;-74
2023/05/05 11:06:16;;;;;;;5.10;1.80;;;16.90;99.90;;;;;;5093428;28;20188;-74
2023/05/05 11:08:47;;;;;;;5.85;1.80;;;16.80;99.90;;;;;;5093809;28;20188;-73
2023/05/05 11:11:18;;;;;;;4.55;1.42;;;16.80;99.90;;;;;;5094649;28;20216;-74
2023/05/05 11:14:24;;;;;;;5.07;1.70;;;16.90;99.90;;;;;;5086730;28;20200;-73
2023/05/05 11:16:55;;;;;;;4.57;1.50;;;16.80;99.90;;;;;;5100486;28;20220;-74
2023/05/05 11:19:51;;;;;;;5.68;1.40;;;16.80;99.90;;;;;;5076849;28;20193;-73
2023/05/05 11:22:22;;;;;;;5.38;1.40;;;16.80;99.90;;;;;;5077422;28;20251;-73
2023/05/05 11:24:53;;;;;;;5.70;1.40;;;16.80;99.90;;;;;;5077954;28;20656;-73
2023/05/05 11:27:44;;;;;;;4.90;1.13;;;16.80;99.90;;;;;;5082091;28;20210;-74
2023/05/05 11:30:18;;;;;;;5.47;1.38;;;16.80;99.90;;;;;;5097037;28;20200;-73
2023/05/05 11:33:27;;;;;;;2.47;1.40;;;16.80;99.90;;;;;;5097063;28;20643;-73
2023/05/05 11:35:58;;;;;;;3.85;1.58;;;16.70;99.90;;;;;;5097520;28;20281;-74
2023/05/05 11:38:44;;;;;;;5.18;1.52;;;16.70;99.90;;;;;;5098050;28;20194;-74
2023/05/05 11:41:21;;;;;;;4.28;1.35;;;16.70;99.90;;;;;;5096874;28;20215;-74
2023/05/05 11:44:09;;;;;;;3.22;1.30;;;16.70;99.90;;;;;;5092234;28;20226;-73
2023/05/05 11:46:43;;;;;;;4.63;1.30;;;16.60;99.90;;;;;;5092668;28;20201;-74
2023/05/05 11:49:14;;;;;;;5.25;1.33;;;16.60;99.90;;;;;;5076126;28;20203;-74
2023/05/05 11:51:45;;;;;;;4.43;1.60;;;16.60;99.90;;;;;;5097326;28;20206;-73
2023/05/05 11:54:21;;;;;;;3.95;1.17;;;16.60;99.90;;;;;;5117042;28;20192;-74
2023/05/05 11:56:57;;;;;;;4.53;1.30;;;16.50;99.90;;;;;;5104792;28;20196;-74
2023/05/05 11:59:29;;;;;;;3.75;1.10;;;16.50;99.90;;;;;;5097761;28;20199;-74
2023/05/05 12:02:02;;;;;;;4.35;1.35;;;16.50;99.90;;;;;;5082241;28;20235;-73
2023/05/05 12:04:34;;;;;;;2.28;1.00;;;16.50;99.90;;;;;;5075240;28;20235;-74
2023/05/05 12:07:05;;;;;;;4.25;1.30;;;16.40;99.90;;;;;;5096509;28;20548;-74
2023/05/05 12:09:37;;;;;;;4.05;1.25;;;16.40;99.90;;;;;;5115527;28;20639;-73
2023/05/05 12:12:10;;;;;;;3.55;1.40;;;16.30;99.90;;;;;;5115515;28;20187;-74
2023/05/05 12:14:50;;;;;;;6.45;1.30;;;16.30;99.90;;;;;;5116061;28;20183;-74
2023/05/05 12:17:25;;;;;;;4.15;1.38;;;16.20;99.90;;;;;;5114354;28;20227;-74
2023/05/05 12:19:57;;;;;;;3.42;1.20;;;16.20;99.90;;;;;;5086111;28;20184;-73
2023/05/05 12:22:29;;;;;;;6.18;1.60;;;16.20;99.90;;;;;;5115370;28;20215;-73
2023/05/05 12:25:01;;;;;;;3.88;1.30;;;16.20;99.90;;;;;;5102411;28;20200;-73
2023/05/05 12:27:32;;;;;;;3.63;1.52;;;16.20;99.90;;;;;;5083702;28;20272;-74
2023/05/05 12:30:19;;;;;;;4.05;1.42;;;16.20;99.90;;;;;;5074782;28;20222;-74
2023/05/05 12:32:53;;;;;;;6.00;1.23;;;16.20;99.90;;;;;;5074522;28;20189;-73
2023/05/05 12:35:24;;;;;;;3.30;1.33;;;16.10;99.90;;;;;;5080440;28;20258;-73
2023/05/05 12:37:55;;;;;;;2.88;1.33;;;16.10;99.90;;;;;;5074559;28;20193;-73
2023/05/05 12:40:53;;;;;;;4.80;1.58;;;16.10;99.90;;;;;;5074380;28;20185;-73
2023/05/05 12:43:32;;;;;;;7.63;1.50;;;16.00;99.90;;;;;;5075803;28;20309;-73
2023/05/05 12:46:08;;;;;;;7.15;1.35;;;16.00;99.90;;;;;;5090413;28;20196;-73
2023/05/05 12:48:42;;;;;;;3.05;1.20;;;15.90;99.90;;;;;;5080686;28;20206;-74
2023/05/05 12:51:21;;;;;;;5.78;1.50;;;15.90;99.90;;;;;;5096106;28;20647;-74
2023/05/05 12:54:03;;;;;;;5.75;1.77;;;15.80;99.90;;;;;;5093864;28;20231;-73
2023/05/05 12:56:39;;;;;;;3.38;1.48;;;15.70;99.90;;;;;;5078428;28;20209;-73
2023/05/05 12:59:10;;;;;;;5.05;1.50;;;15.60;99.90;;;;;;5087338;28;20224;-73
2023/05/05 13:01:53;;;;;;;3.85;1.67;;;15.60;99.90;;;;;;5073744;28;20679;-74
2023/05/05 13:04:28;;;;;;;3.42;1.23;;;15.60;99.90;;;;;;4957722;28;4076819;-73
2023/05/05 13:07:15;;;;;;;7.68;1.48;;;15.60;99.90;;;;;;5103632;28;20196;-74
2023/05/05 13:09:46;;;;;;;4.72;1.30;;;15.60;99.90;;;;;;5077896;28;20195;-73
2023/05/05 13:12:18;;;;;;;4.18;1.33;;;15.60;99.90;;;;;;5094744;28;20196;-73
2023/05/05 13:14:49;;;;;;;2.97;1.10;;;15.60;99.90;;;;;;5085764;28;20201;-73
2023/05/05 13:17:20;;;;;;;3.28;1.60;;;15.60;99.90;;;;;;5084649;28;20609;-73
2023/05/05 13:19:53;;;;;;;4.53;1.70;;;15.60;99.90;;;;;;5084346;28;20196;-74
2023/05/05 13:22:25;;;;;;;5.57;2.25;;;15.60;99.90;;;;;;5092326;28;20216;-73